createdAt,value
2023-02-03T00:00:14.876Z,2.60
2023-02-03T00:02:42.483Z,2.53
2023-02-03T00:05:10.376Z,2.10
2023-02-03T00:07:38.548Z,2.42
2023-02-03T00:10:06.911Z,2.13
2023-02-03T00:12:34.780Z,3.27
2023-02-03T00:15:03.763Z,3.45
2023-02-03T00:17:31.289Z,3.88
2023-02-03T00:19:58.853Z,3.35
2023-02-03T00:22:26.483Z,3.00
2023-02-03T00:24:54.031Z,3.00
2023-02-03T00:27:21.593Z,2.55
2023-02-03T00:29:49.161Z,2.38
2023-02-03T00:32:18.151Z,2.67
2023-02-03T00:34:45.765Z,2.67
2023-02-03T00:37:13.543Z,2.33
2023-02-03T00:39:41.080Z,2.00
2023-02-03T00:42:08.807Z,2.53
2023-02-03T00:44:36.357Z,2.20
2023-02-03T00:47:03.872Z,2.08
2023-02-03T00:49:32.886Z,2.30
2023-02-03T00:52:00.467Z,2.50
2023-02-03T00:54:28.053Z,2.20
2023-02-03T00:56:55.616Z,2.78
2023-02-03T00:59:23.209Z,2.50
2023-02-03T01:01:51.111Z,2.70
2023-02-03T01:04:18.678Z,2.28
2023-02-03T01:06:47.626Z,2.83
2023-02-03T01:09:15.160Z,2.15
2023-02-03T01:11:42.724Z,2.35
2023-02-03T01:14:10.459Z,2.10
2023-02-03T01:16:38.634Z,2.30
2023-02-03T01:19:06.623Z,2.10
2023-02-03T01:21:34.195Z,2.15
2023-02-03T01:24:03.698Z,2.10
2023-02-03T01:26:31.255Z,1.93
2023-02-03T01:29:00.285Z,1.83
2023-02-03T01:31:29.003Z,2.10
2023-02-03T01:33:56.980Z,2.28
2023-02-03T01:36:25.636Z,1.98
2023-02-03T01:38:53.446Z,1.60
2023-02-03T01:41:23.120Z,2.20
2023-02-03T01:43:51.432Z,1.80
2023-02-03T01:46:25.958Z,2.33
2023-02-03T01:48:54.817Z,2.22
2023-02-03T01:51:23.193Z,1.63
2023-02-03T01:53:52.465Z,2.22
2023-02-03T01:56:20.236Z,1.45
2023-02-03T01:58:50.558Z,2.83
2023-02-03T02:01:19.714Z,2.13
2023-02-03T02:03:48.895Z,2.07
2023-02-03T02:06:16.537Z,2.08
2023-02-03T02:08:46.809Z,1.75
2023-02-03T02:11:14.452Z,1.70
2023-02-03T02:13:42.435Z,2.55
2023-02-03T02:16:13.216Z,2.00
2023-02-03T02:19:01.557Z,2.80
2023-02-03T02:21:47.597Z,2.25
2023-02-03T02:24:33.269Z,1.80
2023-02-03T02:27:07.237Z,2.28
2023-02-03T02:29:49.621Z,2.83
2023-02-03T02:32:21.952Z,1.65
2023-02-03T02:34:54.935Z,2.00
2023-02-03T02:37:27.614Z,1.42
2023-02-03T02:39:58.856Z,1.88
2023-02-03T02:42:29.138Z,1.73
2023-02-03T02:44:59.302Z,1.92
2023-02-03T02:47:28.278Z,1.90
2023-02-03T02:49:58.004Z,1.60
2023-02-03T02:52:26.052Z,2.13
2023-02-03T02:54:54.809Z,1.73
2023-02-03T02:57:23.463Z,2.42
2023-02-03T02:59:51.001Z,2.03
2023-02-03T03:02:19.044Z,1.23
2023-02-03T03:04:49.026Z,2.90
2023-02-03T03:07:18.451Z,1.83
2023-02-03T03:09:48.336Z,2.50
2023-02-03T03:12:17.293Z,2.15
2023-02-03T03:14:48.358Z,2.15
2023-02-03T03:17:18.721Z,2.45
2023-02-03T03:19:48.774Z,1.77
2023-02-03T03:22:18.608Z,2.22
2023-02-03T03:24:48.686Z,2.03
2023-02-03T03:27:19.089Z,1.95
2023-02-03T03:29:48.322Z,2.05
2023-02-03T03:32:16.271Z,1.83
2023-02-03T03:34:44.092Z,1.83
2023-02-03T03:37:13.921Z,1.70
2023-02-03T03:39:47.248Z,1.83
2023-02-03T03:42:19.807Z,2.03
2023-02-03T03:44:49.456Z,1.77
2023-02-03T03:47:20.421Z,2.60
2023-02-03T03:49:49.262Z,1.70
2023-02-03T03:52:20.142Z,2.47
2023-02-03T03:54:50.448Z,2.88
2023-02-03T03:57:22.559Z,2.07
2023-02-03T03:59:50.591Z,2.28
2023-02-03T04:02:19.171Z,1.98
2023-02-03T04:04:47.354Z,1.90
2023-02-03T04:07:15.307Z,1.33
2023-02-03T04:09:43.930Z,1.90
2023-02-03T04:12:20.066Z,1.73
2023-02-03T04:14:47.600Z,1.92
2023-02-03T04:17:15.202Z,2.38
2023-02-03T04:19:42.772Z,2.13
2023-02-03T04:22:10.329Z,2.30
2023-02-03T04:24:37.883Z,2.15
2023-02-03T04:27:05.582Z,2.28
2023-02-03T04:29:34.511Z,1.42
2023-02-03T04:32:02.115Z,3.17
2023-02-03T04:34:29.722Z,1.63
2023-02-03T04:36:57.271Z,2.17
2023-02-03T04:39:24.880Z,3.38
2023-02-03T04:41:52.501Z,1.70
2023-02-03T04:44:20.043Z,2.25
2023-02-03T04:46:49.045Z,2.00
2023-02-03T04:49:17.693Z,1.65
2023-02-03T04:51:45.496Z,1.98
2023-02-03T04:54:13.204Z,2.20
2023-02-03T04:56:40.751Z,2.42
2023-02-03T04:59:08.661Z,2.00
2023-02-03T05:01:36.202Z,1.90
2023-02-03T05:04:05.271Z,1.92
2023-02-03T05:06:33.132Z,2.70
2023-02-03T05:09:00.670Z,2.70
2023-02-03T05:11:28.476Z,2.50
2023-02-03T05:13:56.043Z,1.95
2023-02-03T05:16:23.810Z,2.58
2023-02-03T05:18:51.385Z,2.45
2023-02-03T05:21:20.319Z,2.28
2023-02-03T05:23:48.082Z,2.63
2023-02-03T05:26:15.999Z,1.95
2023-02-03T05:28:43.585Z,2.45
2023-02-03T05:31:11.199Z,2.78
2023-02-03T05:33:38.804Z,2.80
2023-02-03T05:36:06.588Z,2.17
2023-02-03T05:38:35.538Z,2.17
2023-02-03T05:41:20.432Z,3.10
2023-02-03T05:43:47.990Z,2.92
2023-02-03T05:46:15.612Z,2.63
2023-02-03T05:48:43.156Z,2.30
2023-02-03T05:51:10.742Z,2.40
2023-02-03T05:53:39.655Z,3.17
2023-02-03T05:56:07.444Z,2.65
2023-02-03T05:58:35.008Z,2.50
2023-02-03T06:01:02.583Z,2.10
2023-02-03T06:03:30.189Z,2.70
2023-02-03T06:05:58.942Z,1.67
2023-02-03T06:08:28.645Z,2.03
2023-02-03T06:11:00.717Z,1.67
2023-02-03T06:13:28.632Z,2.13
2023-02-03T06:15:56.311Z,2.75
2023-02-03T06:18:23.898Z,2.60
2023-02-03T06:20:51.638Z,2.60
2023-02-03T06:23:19.979Z,2.30
2023-02-03T06:25:48.892Z,3.00
2023-02-03T06:28:17.936Z,2.42
2023-02-03T06:30:45.702Z,3.58
2023-02-03T06:33:13.309Z,3.13
2023-02-03T06:35:40.857Z,2.03
2023-02-03T06:38:08.433Z,2.77
2023-02-03T06:40:35.988Z,2.63
2023-02-03T06:43:03.573Z,3.28
2023-02-03T06:45:32.491Z,2.65
2023-02-03T06:48:00.077Z,3.45
2023-02-03T06:50:28.098Z,2.33
2023-02-03T06:52:55.873Z,2.70
2023-02-03T06:55:23.462Z,2.78
2023-02-03T06:57:51.840Z,2.83
2023-02-03T07:00:19.849Z,2.42
2023-02-03T07:02:54.100Z,2.77
2023-02-03T07:05:21.800Z,3.05
2023-02-03T07:07:49.377Z,2.55
2023-02-03T07:10:17.286Z,2.40
2023-02-03T07:12:45.353Z,2.42
2023-02-03T07:15:24.714Z,3.50
2023-02-03T07:17:55.264Z,2.70
2023-02-03T07:20:23.512Z,3.05
2023-02-03T07:22:55.037Z,3.53
2023-02-03T07:25:22.867Z,4.30
2023-02-03T07:27:50.472Z,2.80
2023-02-03T07:30:18.236Z,3.60
2023-02-03T07:32:49.611Z,3.67
2023-02-03T07:35:18.799Z,3.28
2023-02-03T07:37:46.660Z,3.35
2023-02-03T07:40:14.827Z,3.80
2023-02-03T07:42:43.301Z,3.30
2023-02-03T07:45:13.011Z,2.60
2023-02-03T07:47:41.044Z,2.83
2023-02-03T07:50:08.910Z,2.50
2023-02-03T07:52:38.247Z,3.37
2023-02-03T07:55:05.941Z,3.90
2023-02-03T07:57:33.505Z,3.40
2023-02-03T08:00:01.051Z,3.03
2023-02-03T08:02:28.834Z,3.20
2023-02-03T08:04:58.049Z,3.43
2023-02-03T08:07:25.892Z,3.53
2023-02-03T08:09:54.939Z,3.05
2023-02-03T08:12:22.532Z,3.33
2023-02-03T08:14:50.069Z,2.17
2023-02-03T08:17:17.646Z,3.43
2023-02-03T08:19:45.221Z,2.88
2023-02-03T08:22:16.011Z,3.00
2023-02-03T08:24:45.708Z,2.67
2023-02-03T08:27:15.286Z,3.10
2023-02-03T08:29:43.408Z,2.83
2023-02-03T08:32:11.321Z,3.90
2023-02-03T08:34:38.920Z,3.05
2023-02-03T08:37:06.525Z,2.67
2023-02-03T08:39:34.208Z,4.63
2023-02-03T08:42:03.921Z,4.07
2023-02-03T08:44:33.158Z,3.78
2023-02-03T08:47:01.648Z,3.20
2023-02-03T08:49:30.209Z,3.47
2023-02-03T08:51:58.533Z,3.47
2023-02-03T08:54:26.655Z,3.40
2023-02-03T08:56:54.369Z,3.10
2023-02-03T08:59:21.937Z,4.30
2023-02-03T09:01:50.887Z,4.13
2023-02-03T09:04:19.536Z,3.50
2023-02-03T09:06:48.021Z,2.77
2023-02-03T09:09:15.657Z,3.65
2023-02-03T09:11:43.547Z,2.78
2023-02-03T09:14:11.891Z,2.97
2023-02-03T09:16:39.756Z,2.40
2023-02-03T09:19:08.865Z,2.60
2023-02-03T09:21:43.386Z,1.90
2023-02-03T09:24:14.786Z,2.55
2023-02-03T09:26:42.475Z,2.78
2023-02-03T09:29:10.246Z,2.53
2023-02-03T09:31:37.989Z,2.47
2023-02-03T09:34:05.595Z,3.67
2023-02-03T09:36:34.927Z,3.17
2023-02-03T09:39:02.651Z,3.15
2023-02-03T09:41:42.596Z,3.60
2023-02-03T09:44:13.764Z,3.57
2023-02-03T09:46:43.264Z,4.32
2023-02-03T09:49:16.444Z,3.78
2023-02-03T09:51:49.573Z,3.78
2023-02-03T09:54:19.055Z,3.72
2023-02-03T09:56:52.343Z,2.60
2023-02-03T09:59:20.297Z,3.70
2023-02-03T10:01:53.808Z,3.53
2023-02-03T10:04:27.968Z,3.78
2023-02-03T10:07:03.922Z,4.30
2023-02-03T10:09:37.612Z,3.60
2023-02-03T10:12:23.326Z,3.40
2023-02-03T10:14:55.842Z,4.43
2023-02-03T10:17:30.569Z,3.00
2023-02-03T10:20:01.729Z,3.03
2023-02-03T10:22:32.007Z,3.43
2023-02-03T10:25:01.969Z,3.97
2023-02-03T10:27:29.978Z,3.22
2023-02-03T10:30:00.129Z,3.05
2023-02-03T10:32:28.376Z,2.63
2023-02-03T10:34:56.135Z,3.33
2023-02-03T10:37:29.193Z,3.38
2023-02-03T10:40:00.635Z,3.30
2023-02-03T10:42:52.186Z,2.42
2023-02-03T10:45:20.897Z,3.90
2023-02-03T10:47:50.042Z,3.83
2023-02-03T10:50:18.692Z,3.67
2023-02-03T10:52:47.821Z,2.63
2023-02-03T10:55:32.752Z,3.05
2023-02-03T10:58:07.530Z,3.03
2023-02-03T11:00:36.015Z,3.10
2023-02-03T11:03:06.290Z,3.30
2023-02-03T11:05:34.274Z,3.40
2023-02-03T11:08:02.093Z,3.15
2023-02-03T11:10:31.177Z,2.47
2023-02-03T11:13:18.381Z,3.50
2023-02-03T11:15:56.523Z,3.22
2023-02-03T11:18:42.299Z,2.90
2023-02-03T11:21:11.671Z,4.00
2023-02-03T11:23:44.848Z,3.10
2023-02-03T11:26:14.357Z,3.80
2023-02-03T11:28:49.616Z,3.25
2023-02-03T11:31:23.023Z,2.85
2023-02-03T11:33:53.297Z,3.88
2023-02-03T11:36:21.201Z,3.17
2023-02-03T11:38:48.847Z,3.23
2023-02-03T11:41:17.986Z,3.15
2023-02-03T11:43:47.208Z,3.17
2023-02-03T11:46:15.675Z,2.83
2023-02-03T11:48:49.603Z,2.80
2023-02-03T11:51:21.499Z,3.67
2023-02-03T11:53:57.768Z,2.53
2023-02-03T11:56:32.725Z,2.75
2023-02-03T11:59:11.182Z,3.25
2023-02-03T12:01:51.015Z,2.95
2023-02-03T12:04:29.448Z,3.27
2023-02-03T12:07:05.412Z,2.97
2023-02-03T12:09:38.612Z,4.80
2023-02-03T12:12:20.265Z,2.85
2023-02-03T12:14:51.935Z,3.22
2023-02-03T12:17:25.952Z,3.33
2023-02-03T12:20:03.169Z,3.67
2023-02-03T12:22:35.689Z,3.42
2023-02-03T12:25:08.873Z,3.53
2023-02-03T12:27:42.794Z,2.53
2023-02-03T12:30:15.524Z,3.13
2023-02-03T12:32:46.535Z,2.72
2023-02-03T12:35:18.096Z,2.78
2023-02-03T12:37:48.922Z,3.13
2023-02-03T12:40:18.989Z,2.85
2023-02-03T12:42:49.683Z,3.00
2023-02-03T12:45:20.006Z,3.78
2023-02-03T12:47:50.901Z,3.67
2023-02-03T12:50:21.795Z,2.88
2023-02-03T12:52:53.474Z,3.17
2023-02-03T12:55:23.111Z,3.43
2023-02-03T12:57:54.948Z,2.90
2023-02-03T13:00:28.773Z,3.15
2023-02-03T13:03:03.426Z,3.10
2023-02-03T13:05:33.957Z,3.83
2023-02-03T13:08:05.111Z,2.47
2023-02-03T13:10:34.879Z,3.35
2023-02-03T13:13:04.719Z,3.50
2023-02-03T13:15:35.326Z,3.42
2023-02-03T13:18:05.036Z,2.70
2023-02-03T13:20:36.019Z,3.07
2023-02-03T13:23:07.032Z,3.00
2023-02-03T13:25:40.132Z,3.45
2023-02-03T13:28:12.967Z,3.85
2023-02-03T13:30:51.935Z,3.22
2023-02-03T13:33:40.687Z,3.20
2023-02-03T13:36:14.718Z,4.00
2023-02-03T13:39:09.356Z,2.90
2023-02-03T13:41:39.478Z,3.97
2023-02-03T13:44:11.861Z,3.53
2023-02-03T13:46:41.631Z,3.07
2023-02-03T13:49:10.018Z,3.28
2023-02-03T13:51:39.320Z,2.88
2023-02-03T13:54:08.604Z,3.47
2023-02-03T13:56:37.078Z,4.03
2023-02-03T13:59:06.069Z,3.37
2023-02-03T14:01:35.798Z,3.70
2023-02-03T14:04:05.672Z,3.20
2023-02-03T14:06:59.030Z,3.35
2023-02-03T14:09:38.275Z,3.53
2023-02-03T14:12:24.482Z,3.73
2023-02-03T14:15:04.157Z,2.85
2023-02-03T14:18:06.650Z,3.55
2023-02-03T14:20:43.346Z,3.65
2023-02-03T14:23:14.536Z,3.33
2023-02-03T14:25:43.227Z,2.30
2023-02-03T14:28:12.246Z,3.60
2023-02-03T14:30:54.746Z,3.88
2023-02-03T14:33:25.709Z,2.88
2023-02-03T14:35:55.463Z,2.60
2023-02-03T14:38:23.140Z,3.97
2023-02-03T14:40:53.170Z,2.83
2023-02-03T14:43:28.541Z,3.20
2023-02-03T14:46:04.886Z,2.70
2023-02-03T14:48:43.151Z,3.80
2023-02-03T14:51:17.386Z,3.30
2023-02-03T14:54:12.302Z,2.38
2023-02-03T14:57:02.866Z,2.72
2023-02-03T14:59:37.247Z,3.15
2023-02-03T15:02:15.982Z,2.92
2023-02-03T15:04:45.606Z,2.83
2023-02-03T15:07:28.138Z,1.88
2023-02-03T15:09:57.285Z,2.78
2023-02-03T15:12:26.149Z,1.70
2023-02-03T15:14:53.715Z,1.55
2023-02-03T15:17:23.899Z,1.40
2023-02-03T15:19:52.107Z,2.10
2023-02-03T15:22:20.951Z,1.95
2023-02-03T15:24:50.941Z,1.73
2023-02-03T15:27:25.080Z,1.88
2023-02-03T15:29:52.894Z,1.50
2023-02-03T15:32:25.006Z,2.08
2023-02-03T15:34:54.006Z,1.60
2023-02-03T15:37:24.740Z,1.55
2023-02-03T15:39:58.957Z,2.05
2023-02-03T15:42:29.923Z,1.80
2023-02-03T15:44:58.824Z,1.92
2023-02-03T15:47:28.811Z,1.85
2023-02-03T15:49:58.755Z,1.83
2023-02-03T15:52:28.234Z,1.90
2023-02-03T15:55:01.033Z,1.43
2023-02-03T15:57:30.828Z,1.73
2023-02-03T15:59:59.709Z,1.67
2023-02-03T16:02:29.709Z,1.30
2023-02-03T16:04:57.498Z,1.40
2023-02-03T16:07:26.525Z,1.47
2023-02-03T16:09:54.747Z,1.40
2023-02-03T16:12:24.241Z,1.42
2023-02-03T16:14:53.593Z,1.80
2023-02-03T16:17:23.695Z,1.23
2023-02-03T16:19:52.277Z,1.77
2023-02-03T16:22:32.115Z,1.55
2023-02-03T16:25:13.260Z,1.10
2023-02-03T16:27:40.988Z,1.20
2023-02-03T16:30:41.982Z,1.50
2023-02-03T16:33:31.891Z,1.93
2023-02-03T16:36:19.758Z,1.65
2023-02-03T16:39:04.777Z,1.48
2023-02-03T16:41:50.490Z,1.10
2023-02-03T16:44:35.835Z,1.77
2023-02-03T16:47:22.555Z,1.67
2023-02-03T16:50:07.319Z,1.65
2023-02-03T16:52:35.065Z,1.42
2023-02-03T16:55:02.636Z,2.90
2023-02-03T16:57:30.221Z,1.20
2023-02-03T16:59:57.763Z,1.50
2023-02-03T17:02:26.743Z,1.95
2023-02-03T17:04:54.317Z,1.20
2023-02-03T17:07:21.956Z,1.48
2023-02-03T17:09:49.529Z,1.30
2023-02-03T17:12:17.153Z,1.47
2023-02-03T17:14:44.827Z,1.17
2023-02-03T17:17:12.366Z,1.02
2023-02-03T17:19:41.905Z,1.27
2023-02-03T17:22:09.451Z,1.25
2023-02-03T17:24:37.057Z,1.27
2023-02-03T17:27:04.708Z,1.02
2023-02-03T17:29:32.372Z,1.17
2023-02-03T17:32:00.022Z,1.63
2023-02-03T17:34:27.616Z,1.50
2023-02-03T17:36:57.133Z,1.50
2023-02-03T17:55:42.768Z,1.48
2023-02-03T17:58:10.339Z,1.15
2023-02-03T18:00:37.953Z,0.93
2023-02-03T18:03:05.496Z,0.90
2023-02-03T18:05:33.957Z,1.48
2023-02-03T18:08:08.923Z,1.50
2023-02-03T18:10:45.225Z,1.10
2023-02-03T18:13:12.801Z,1.08
2023-02-03T18:15:40.443Z,1.00
2023-02-03T18:18:08.081Z,0.90
2023-02-03T18:20:36.014Z,0.75
2023-02-03T18:23:03.579Z,1.35
2023-02-03T18:25:31.191Z,1.20
2023-02-03T18:28:00.248Z,1.20
2023-02-03T18:30:27.953Z,1.13
2023-02-03T18:32:55.745Z,1.00
2023-02-03T18:35:23.905Z,1.10
2023-02-03T18:37:52.203Z,0.90
2023-02-03T18:40:20.107Z,0.80
2023-02-03T18:42:47.848Z,0.90
2023-02-03T18:45:16.883Z,1.20
2023-02-03T18:47:44.427Z,0.73
2023-02-03T18:50:12.046Z,1.30
2023-02-03T18:52:39.670Z,1.10
2023-02-03T18:55:07.731Z,1.10
2023-02-03T18:57:35.319Z,1.00
2023-02-03T19:00:02.980Z,0.70
2023-02-03T19:02:31.902Z,0.77
2023-02-03T19:04:59.493Z,0.60
2023-02-03T19:07:27.294Z,0.80
2023-02-03T19:09:54.862Z,0.90
2023-02-03T19:12:22.641Z,0.60
2023-02-03T19:14:50.208Z,0.80
2023-02-03T19:17:17.827Z,0.87
2023-02-03T19:19:46.769Z,0.90
2023-02-03T19:22:14.340Z,1.13
2023-02-03T19:24:41.907Z,0.70
2023-02-03T19:27:09.468Z,1.20
2023-02-03T19:29:38.608Z,0.90
2023-02-03T19:32:06.864Z,0.70
2023-02-03T19:34:34.557Z,0.70
2023-02-03T19:37:03.471Z,0.90
2023-02-03T19:39:32.266Z,1.02
2023-02-03T19:42:00.003Z,1.30
2023-02-03T19:44:27.580Z,1.00
2023-02-03T19:46:55.127Z,0.95
2023-02-03T19:49:22.801Z,0.90
2023-02-03T19:51:50.346Z,0.82
2023-02-03T19:54:19.284Z,1.00
2023-02-03T19:56:46.833Z,1.10
2023-02-03T19:59:14.418Z,1.38
2023-02-03T20:01:42.448Z,1.10
2023-02-03T20:04:10.384Z,1.00
2023-02-03T20:06:37.924Z,1.10
2023-02-03T20:09:06.700Z,1.00
2023-02-03T20:11:35.730Z,0.90
2023-02-03T20:14:03.308Z,1.55
2023-02-03T20:16:30.941Z,1.10
2023-02-03T20:19:00.584Z,1.00
2023-02-03T20:21:28.147Z,0.80
2023-02-03T20:23:55.878Z,1.10
2023-02-03T20:26:23.426Z,1.23
2023-02-03T20:28:52.361Z,1.10
2023-02-03T20:31:20.026Z,0.77
2023-02-03T20:33:47.705Z,1.00
2023-02-03T20:36:15.353Z,0.73
2023-02-03T20:38:42.878Z,0.77
2023-02-03T20:41:10.838Z,0.95
2023-02-03T20:43:39.232Z,0.80
2023-02-03T20:46:10.785Z,0.80
2023-02-03T20:48:38.297Z,0.75
2023-02-03T20:51:07.518Z,1.00
2023-02-03T20:53:36.775Z,0.63
2023-02-03T20:56:08.331Z,0.67
2023-02-03T20:58:37.173Z,0.77
2023-02-03T21:01:12.181Z,0.80
2023-02-03T21:03:58.545Z,0.82
2023-02-03T21:06:26.956Z,1.15
2023-02-03T21:08:54.494Z,1.40
2023-02-03T21:11:26.575Z,1.00
2023-02-03T21:13:54.171Z,1.20
2023-02-03T21:16:25.117Z,0.90
2023-02-03T21:18:54.999Z,0.90
2023-02-03T21:21:27.991Z,0.77
2023-02-03T21:23:55.750Z,1.00
2023-02-03T21:26:24.860Z,0.70
2023-02-03T21:28:53.274Z,0.80
2023-02-03T21:31:24.839Z,0.90
2023-02-03T21:33:54.349Z,0.90
2023-02-03T21:36:22.920Z,0.90
2023-02-03T21:38:51.437Z,0.70
2023-02-03T21:41:19.950Z,0.80
2023-02-03T21:43:48.908Z,0.70
2023-02-03T21:46:21.017Z,0.80
2023-02-03T21:48:50.692Z,0.90
2023-02-03T21:51:22.570Z,0.90
2023-02-03T21:53:55.659Z,0.70
2023-02-03T21:56:24.454Z,0.98
2023-02-03T21:58:53.177Z,0.70
2023-02-03T22:01:22.925Z,0.93
2023-02-03T22:03:51.658Z,0.63
2023-02-03T22:06:23.959Z,0.70
2023-02-03T22:08:52.170Z,0.73
2023-02-03T22:11:20.631Z,0.70
2023-02-03T22:13:48.416Z,0.77
2023-02-03T22:16:17.218Z,0.70
2023-02-03T22:18:45.130Z,0.90
2023-02-03T22:21:12.856Z,0.90
2023-02-03T22:23:41.945Z,1.00
2023-02-03T22:26:09.886Z,1.00
2023-02-03T22:28:37.488Z,0.90
2023-02-03T22:31:05.689Z,0.88
2023-02-03T22:33:33.242Z,0.85
2023-02-03T22:36:00.828Z,1.00
2023-02-03T22:38:28.387Z,1.00
2023-02-03T22:40:57.301Z,0.80
2023-02-03T22:43:24.878Z,0.73
2023-02-03T22:45:52.617Z,1.08
2023-02-03T22:48:20.427Z,0.90
2023-02-03T22:50:48.366Z,0.93
2023-02-03T22:53:16.144Z,1.10
2023-02-03T22:55:44.035Z,1.00
2023-02-03T22:58:13.130Z,1.15
2023-02-03T23:00:40.851Z,0.90
2023-02-03T23:03:08.616Z,1.17
2023-02-03T23:05:36.206Z,1.10
2023-02-03T23:08:03.830Z,1.17
2023-02-03T23:10:31.988Z,0.98
2023-02-03T23:13:00.700Z,1.00
2023-02-03T23:15:29.893Z,1.27
2023-02-03T23:17:57.473Z,0.90
2023-02-03T23:20:25.130Z,1.13
2023-02-03T23:22:52.656Z,1.00
2023-02-03T23:25:20.254Z,0.90
2023-02-03T23:27:47.834Z,0.90
2023-02-03T23:30:15.588Z,0.80
2023-02-03T23:32:44.493Z,1.05
2023-02-03T23:35:29.236Z,1.30
2023-02-03T23:37:56.767Z,0.97
2023-02-03T23:40:24.419Z,1.00
2023-02-03T23:42:51.996Z,1.20
2023-02-03T23:45:19.573Z,1.15
2023-02-03T23:47:48.521Z,1.30
2023-02-03T23:50:18.802Z,1.10
2023-02-03T23:52:46.576Z,1.17
2023-02-03T23:55:14.930Z,1.30
2023-02-03T23:57:42.804Z,1.20
